Ilfracombe, United Kingdom
Current Conditions -  °F | °C
As of 5:50 AM on Wednesday 22 Oct 2014 (Local Time) from EGDX Reporting Station
Clear Clear  
Wind Chill: 52°   Ceiling: Unl
Heat Index: 52°   Visibility: 6mi
Dew Point: 41°   Wind: 14mph
Humidity: 67%   Direction: 300°WNW
Pressure: 30.3"   Gusts: NA
Location:  51.21°N, 4.11°W
Report Text: EGDX 220450Z AUTO 30012KT 9999 NCD 11/05 Q1026
Loading
Personal Weather Stations






























Interactive Weather Map
Tropical Storm Tracking
New forecast layout! Learn more

10-Day Weather Forecast

Advertisements
Track Severe Weather on mobile